sensor_id;sensor_type;location;lat;lon;timestamp;P1;durP1;ratioP1;P2;durP2;ratioP2
5805;SDS011;2929;50.810;8.342;2022-07-24T00:01:21;6.70;;;5.93;;
5805;SDS011;2929;50.810;8.342;2022-07-24T00:03:49;8.50;;;6.13;;
5805;SDS011;2929;50.810;8.342;2022-07-24T00:06:16;8.10;;;6.30;;
5805;SDS011;2929;50.810;8.342;2022-07-24T00:08:43;9.20;;;6.60;;
5805;SDS011;2929;50.810;8.342;2022-07-24T00:11:10;8.80;;;5.87;;
5805;SDS011;2929;50.810;8.342;2022-07-24T00:13:37;14.80;;;5.90;;
5805;SDS011;2929;50.810;8.342;2022-07-24T00:16:05;5.87;;;5.33;;
5805;SDS011;2929;50.810;8.342;2022-07-24T00:18:32;6.30;;;5.70;;
5805;SDS011;2929;50.810;8.342;2022-07-24T00:21:01;6.53;;;5.83;;
5805;SDS011;2929;50.810;8.342;2022-07-24T00:23:28;7.70;;;6.33;;
5805;SDS011;2929;50.810;8.342;2022-07-24T00:25:55;7.03;;;5.37;;
5805;SDS011;2929;50.810;8.342;2022-07-24T00:28:23;8.87;;;5.70;;
5805;SDS011;2929;50.810;8.342;2022-07-24T00:30:50;10.37;;;6.30;;
5805;SDS011;2929;50.810;8.342;2022-07-24T00:33:17;6.73;;;5.20;;
5805;SDS011;2929;50.810;8.342;2022-07-24T00:35:44;6.67;;;5.97;;
5805;SDS011;2929;50.810;8.342;2022-07-24T00:38:12;9.90;;;5.87;;
5805;SDS011;2929;50.810;8.342;2022-07-24T00:40:40;8.83;;;5.90;;
5805;SDS011;2929;50.810;8.342;2022-07-24T00:43:07;12.40;;;5.87;;
5805;SDS011;2929;50.810;8.342;2022-07-24T00:45:34;13.43;;;6.37;;
5805;SDS011;2929;50.810;8.342;2022-07-24T00:48:02;7.30;;;5.90;;
5805;SDS011;2929;50.810;8.342;2022-07-24T00:50:30;8.43;;;5.47;;
5805;SDS011;2929;50.810;8.342;2022-07-24T00:52:57;7.10;;;6.37;;
5805;SDS011;2929;50.810;8.342;2022-07-24T00:55:26;8.30;;;5.90;;
5805;SDS011;2929;50.810;8.342;2022-07-24T00:57:54;9.33;;;5.90;;
5805;SDS011;2929;50.810;8.342;2022-07-24T01:00:22;8.53;;;6.20;;
5805;SDS011;2929;50.810;8.342;2022-07-24T01:02:49;7.03;;;6.00;;
5805;SDS011;2929;50.810;8.342;2022-07-24T01:05:17;10.30;;;5.63;;
5805;SDS011;2929;50.810;8.342;2022-07-24T01:07:44;11.83;;;6.00;;
5805;SDS011;2929;50.810;8.342;2022-07-24T01:10:12;8.33;;;7.00;;
5805;SDS011;2929;50.810;8.342;2022-07-24T01:12:41;6.10;;;5.50;;
5805;SDS011;2929;50.810;8.342;2022-07-24T01:15:09;9.90;;;5.60;;
5805;SDS011;2929;50.810;8.342;2022-07-24T01:17:38;5.70;;;5.10;;
5805;SDS011;2929;50.810;8.342;2022-07-24T01:20:07;6.90;;;6.20;;
5805;SDS011;2929;50.810;8.342;2022-07-24T01:22:37;7.30;;;6.27;;
5805;SDS011;2929;50.810;8.342;2022-07-24T01:25:04;7.07;;;5.53;;
5805;SDS011;2929;50.810;8.342;2022-07-24T01:27:32;6.67;;;5.97;;
5805;SDS011;2929;50.810;8.342;2022-07-24T01:29:59;5.90;;;5.30;;
5805;SDS011;2929;50.810;8.342;2022-07-24T01:32:26;8.17;;;6.50;;
5805;SDS011;2929;50.810;8.342;2022-07-24T01:34:53;6.57;;;5.97;;
5805;SDS011;2929;50.810;8.342;2022-07-24T01:37:20;6.40;;;5.20;;
5805;SDS011;2929;50.810;8.342;2022-07-24T01:39:48;8.70;;;5.90;;
5805;SDS011;2929;50.810;8.342;2022-07-24T01:42:15;7.90;;;5.77;;
5805;SDS011;2929;50.810;8.342;2022-07-24T01:44:44;9.30;;;6.13;;
5805;SDS011;2929;50.810;8.342;2022-07-24T01:47:11;13.63;;;6.27;;
5805;SDS011;2929;50.810;8.342;2022-07-24T01:49:38;6.30;;;5.70;;
5805;SDS011;2929;50.810;8.342;2022-07-24T01:55:11;6.97;;;6.20;;
5805;SDS011;2929;50.810;8.342;2022-07-24T01:57:38;7.37;;;6.20;;
5805;SDS011;2929;50.810;8.342;2022-07-24T02:00:06;8.90;;;6.00;;
5805;SDS011;2929;50.810;8.342;2022-07-24T02:02:40;8.97;;;5.83;;
5805;SDS011;2929;50.810;8.342;2022-07-24T02:05:08;7.13;;;5.77;;
5805;SDS011;2929;50.810;8.342;2022-07-24T02:07:35;9.10;;;6.10;;
5805;SDS011;2929;50.810;8.342;2022-07-24T02:10:02;7.43;;;5.10;;
5805;SDS011;2929;50.810;8.342;2022-07-24T02:12:31;6.10;;;5.10;;
5805;SDS011;2929;50.810;8.342;2022-07-24T02:14:58;6.20;;;5.60;;
5805;SDS011;2929;50.810;8.342;2022-07-24T02:17:25;6.30;;;5.70;;
5805;SDS011;2929;50.810;8.342;2022-07-24T02:19:52;9.33;;;5.20;;
5805;SDS011;2929;50.810;8.342;2022-07-24T02:22:19;7.10;;;5.90;;
5805;SDS011;2929;50.810;8.342;2022-07-24T02:24:46;6.17;;;5.57;;
5805;SDS011;2929;50.810;8.342;2022-07-24T02:27:13;7.00;;;6.27;;
5805;SDS011;2929;50.810;8.342;2022-07-24T02:29:42;7.17;;;6.03;;
5805;SDS011;2929;50.810;8.342;2022-07-24T02:32:09;7.53;;;5.40;;
5805;SDS011;2929;50.810;8.342;2022-07-24T02:34:36;6.80;;;5.60;;
5805;SDS011;2929;50.810;8.342;2022-07-24T02:37:03;12.27;;;6.10;;
5805;SDS011;2929;50.810;8.342;2022-07-24T02:39:30;6.90;;;5.50;;
5805;SDS011;2929;50.810;8.342;2022-07-24T02:41:57;12.03;;;5.60;;
5805;SDS011;2929;50.810;8.342;2022-07-24T02:44:24;8.87;;;5.30;;
5805;SDS011;2929;50.810;8.342;2022-07-24T02:46:53;5.77;;;5.23;;
5805;SDS011;2929;50.810;8.342;2022-07-24T02:49:20;6.33;;;5.27;;
5805;SDS011;2929;50.810;8.342;2022-07-24T02:51:47;6.13;;;5.10;;
5805;SDS011;2929;50.810;8.342;2022-07-24T02:54:14;6.60;;;5.43;;
5805;SDS011;2929;50.810;8.342;2022-07-24T02:56:41;6.50;;;5.60;;
5805;SDS011;2929;50.810;8.342;2022-07-24T02:59:08;10.80;;;6.00;;
5805;SDS011;2929;50.810;8.342;2022-07-24T03:01:35;10.53;;;6.00;;
5805;SDS011;2929;50.810;8.342;2022-07-24T03:04:03;6.87;;;5.13;;
5805;SDS011;2929;50.810;8.342;2022-07-24T03:06:31;6.73;;;5.57;;
5805;SDS011;2929;50.810;8.342;2022-07-24T03:08:58;7.83;;;6.30;;
5805;SDS011;2929;50.810;8.342;2022-07-24T03:11:25;8.50;;;5.80;;
5805;SDS011;2929;50.810;8.342;2022-07-24T03:13:52;7.17;;;6.07;;
5805;SDS011;2929;50.810;8.342;2022-07-24T03:16:19;7.40;;;5.90;;
5805;SDS011;2929;50.810;8.342;2022-07-24T03:18:46;8.93;;;6.20;;
5805;SDS011;2929;50.810;8.342;2022-07-24T03:21:15;6.30;;;5.67;;
5805;SDS011;2929;50.810;8.342;2022-07-24T03:23:42;7.07;;;6.37;;
5805;SDS011;2929;50.810;8.342;2022-07-24T03:26:09;7.17;;;6.40;;
5805;SDS011;2929;50.810;8.342;2022-07-24T03:28:36;6.03;;;5.30;;
5805;SDS011;2929;50.810;8.342;2022-07-24T03:31:03;6.67;;;5.93;;
5805;SDS011;2929;50.810;8.342;2022-07-24T03:33:30;6.20;;;5.47;;
5805;SDS011;2929;50.810;8.342;2022-07-24T03:35:58;7.17;;;5.93;;
5805;SDS011;2929;50.810;8.342;2022-07-24T03:38:27;10.33;;;6.30;;
5805;SDS011;2929;50.810;8.342;2022-07-24T03:40:54;7.33;;;5.70;;
5805;SDS011;2929;50.810;8.342;2022-07-24T03:43:21;8.40;;;5.37;;
5805;SDS011;2929;50.810;8.342;2022-07-24T03:45:48;6.50;;;5.60;;
5805;SDS011;2929;50.810;8.342;2022-07-24T03:48:15;6.43;;;5.83;;
5805;SDS011;2929;50.810;8.342;2022-07-24T03:50:42;7.47;;;5.60;;
5805;SDS011;2929;50.810;8.342;2022-07-24T03:53:09;12.00;;;6.30;;
5805;SDS011;2929;50.810;8.342;2022-07-24T03:55:37;7.87;;;5.80;;
5805;SDS011;2929;50.810;8.342;2022-07-24T03:58:04;6.13;;;5.57;;
5805;SDS011;2929;50.810;8.342;2022-07-24T04:00:31;6.97;;;6.10;;
5805;SDS011;2929;50.810;8.342;2022-07-24T04:02:58;5.93;;;5.33;;
5805;SDS011;2929;50.810;8.342;2022-07-24T04:05:25;7.87;;;5.60;;
5805;SDS011;2929;50.810;8.342;2022-07-24T04:07:52;6.03;;;5.00;;
5805;SDS011;2929;50.810;8.342;2022-07-24T04:10:19;9.13;;;5.67;;
5805;SDS011;2929;50.810;8.342;2022-07-24T04:12:47;7.60;;;5.23;;
5805;SDS011;2929;50.810;8.342;2022-07-24T04:15:14;6.50;;;5.73;;
5805;SDS011;2929;50.810;8.342;2022-07-24T04:17:41;8.07;;;5.90;;
5805;SDS011;2929;50.810;8.342;2022-07-24T04:20:09;6.27;;;5.33;;
5805;SDS011;2929;50.810;8.342;2022-07-24T04:22:37;6.50;;;5.33;;
5805;SDS011;2929;50.810;8.342;2022-07-24T04:25:05;7.67;;;5.47;;
5805;SDS011;2929;50.810;8.342;2022-07-24T04:27:33;7.20;;;5.57;;
5805;SDS011;2929;50.810;8.342;2022-07-24T04:30:02;8.13;;;5.47;;
5805;SDS011;2929;50.810;8.342;2022-07-24T04:32:30;6.80;;;5.70;;
5805;SDS011;2929;50.810;8.342;2022-07-24T04:34:57;6.40;;;5.13;;
5805;SDS011;2929;50.810;8.342;2022-07-24T04:37:24;6.23;;;5.63;;
5805;SDS011;2929;50.810;8.342;2022-07-24T04:39:52;15.43;;;5.70;;
5805;SDS011;2929;50.810;8.342;2022-07-24T04:42:19;7.90;;;5.37;;
5805;SDS011;2929;50.810;8.342;2022-07-24T04:44:46;8.23;;;5.90;;
5805;SDS011;2929;50.810;8.342;2022-07-24T04:47:14;6.40;;;5.80;;
5805;SDS011;2929;50.810;8.342;2022-07-24T04:49:41;8.90;;;5.63;;
5805;SDS011;2929;50.810;8.342;2022-07-24T04:52:08;6.40;;;5.10;;
5805;SDS011;2929;50.810;8.342;2022-07-24T04:54:35;7.37;;;5.80;;
5805;SDS011;2929;50.810;8.342;2022-07-24T04:57:02;6.77;;;5.30;;
5805;SDS011;2929;50.810;8.342;2022-07-24T04:59:29;6.53;;;5.33;;
5805;SDS011;2929;50.810;8.342;2022-07-24T05:01:56;9.33;;;5.53;;
5805;SDS011;2929;50.810;8.342;2022-07-24T05:04:24;7.03;;;5.73;;
5805;SDS011;2929;50.810;8.342;2022-07-24T05:06:51;7.40;;;5.40;;
5805;SDS011;2929;50.810;8.342;2022-07-24T05:09:18;6.73;;;5.23;;
5805;SDS011;2929;50.810;8.342;2022-07-24T05:11:45;5.50;;;4.77;;
5805;SDS011;2929;50.810;8.342;2022-07-24T05:14:12;7.13;;;4.70;;
5805;SDS011;2929;50.810;8.342;2022-07-24T05:16:39;8.47;;;5.20;;
5805;SDS011;2929;50.810;8.342;2022-07-24T05:19:06;5.03;;;4.63;;
5805;SDS011;2929;50.810;8.342;2022-07-24T05:21:34;7.20;;;5.07;;
5805;SDS011;2929;50.810;8.342;2022-07-24T05:24:02;10.30;;;4.80;;
5805;SDS011;2929;50.810;8.342;2022-07-24T05:26:29;5.00;;;4.57;;
5805;SDS011;2929;50.810;8.342;2022-07-24T05:28:56;6.03;;;5.30;;
5805;SDS011;2929;50.810;8.342;2022-07-24T05:31:23;5.50;;;4.83;;
5805;SDS011;2929;50.810;8.342;2022-07-24T05:33:51;9.40;;;4.73;;
5805;SDS011;2929;50.810;8.342;2022-07-24T05:36:18;10.70;;;4.83;;
5805;SDS011;2929;50.810;8.342;2022-07-24T05:38:47;12.53;;;4.90;;
5805;SDS011;2929;50.810;8.342;2022-07-24T05:41:14;5.47;;;4.50;;
5805;SDS011;2929;50.810;8.342;2022-07-24T05:43:41;8.07;;;4.43;;
5805;SDS011;2929;50.810;8.342;2022-07-24T05:46:08;5.23;;;4.60;;
5805;SDS011;2929;50.810;8.342;2022-07-24T05:48:35;7.20;;;4.80;;
5805;SDS011;2929;50.810;8.342;2022-07-24T05:51:02;6.07;;;4.33;;
5805;SDS011;2929;50.810;8.342;2022-07-24T05:53:29;8.87;;;4.73;;
5805;SDS011;2929;50.810;8.342;2022-07-24T05:55:58;5.10;;;4.60;;
5805;SDS011;2929;50.810;8.342;2022-07-24T05:58:25;6.07;;;5.27;;
5805;SDS011;2929;50.810;8.342;2022-07-24T06:00:52;7.90;;;5.70;;
5805;SDS011;2929;50.810;8.342;2022-07-24T06:03:19;5.20;;;4.60;;
5805;SDS011;2929;50.810;8.342;2022-07-24T06:05:46;6.90;;;4.80;;
5805;SDS011;2929;50.810;8.342;2022-07-24T06:08:13;7.60;;;4.63;;
5805;SDS011;2929;50.810;8.342;2022-07-24T06:10:40;8.70;;;4.77;;
5805;SDS011;2929;50.810;8.342;2022-07-24T06:13:08;7.63;;;5.10;;
5805;SDS011;2929;50.810;8.342;2022-07-24T06:15:36;12.70;;;8.27;;
5805;SDS011;2929;50.810;8.342;2022-07-24T06:18:03;5.50;;;5.00;;
5805;SDS011;2929;50.810;8.342;2022-07-24T06:20:30;5.97;;;5.47;;
5805;SDS011;2929;50.810;8.342;2022-07-24T06:22:58;5.73;;;5.13;;
5805;SDS011;2929;50.810;8.342;2022-07-24T06:25:25;5.67;;;5.07;;
5805;SDS011;2929;50.810;8.342;2022-07-24T06:27:52;6.87;;;5.50;;
5805;SDS011;2929;50.810;8.342;2022-07-24T06:30:21;8.50;;;5.83;;
5805;SDS011;2929;50.810;8.342;2022-07-24T06:32:51;6.67;;;5.40;;
5805;SDS011;2929;50.810;8.342;2022-07-24T06:35:20;7.07;;;5.63;;
5805;SDS011;2929;50.810;8.342;2022-07-24T06:37:47;6.93;;;5.63;;
5805;SDS011;2929;50.810;8.342;2022-07-24T06:40:14;6.63;;;5.73;;
5805;SDS011;2929;50.810;8.342;2022-07-24T06:42:42;8.97;;;5.90;;
5805;SDS011;2929;50.810;8.342;2022-07-24T06:45:09;9.67;;;5.67;;
5805;SDS011;2929;50.810;8.342;2022-07-24T06:47:38;8.40;;;5.27;;
5805;SDS011;2929;50.810;8.342;2022-07-24T06:50:05;10.43;;;4.97;;
5805;SDS011;2929;50.810;8.342;2022-07-24T06:52:33;6.23;;;4.93;;
5805;SDS011;2929;50.810;8.342;2022-07-24T06:55:00;6.07;;;4.83;;
5805;SDS011;2929;50.810;8.342;2022-07-24T06:57:27;5.43;;;4.50;;
5805;SDS011;2929;50.810;8.342;2022-07-24T06:59:54;6.30;;;4.60;;
5805;SDS011;2929;50.810;8.342;2022-07-24T07:02:22;8.73;;;4.90;;
5805;SDS011;2929;50.810;8.342;2022-07-24T07:04:50;7.27;;;4.10;;
5805;SDS011;2929;50.810;8.342;2022-07-24T07:07:17;5.87;;;4.33;;
5805;SDS011;2929;50.810;8.342;2022-07-24T07:09:45;6.90;;;4.40;;
5805;SDS011;2929;50.810;8.342;2022-07-24T07:12:11;5.10;;;4.40;;
5805;SDS011;2929;50.810;8.342;2022-07-24T07:14:38;5.80;;;4.10;;
5805;SDS011;2929;50.810;8.342;2022-07-24T07:17:05;4.50;;;3.07;;
5805;SDS011;2929;50.810;8.342;2022-07-24T07:19:32;4.10;;;3.43;;
5805;SDS011;2929;50.810;8.342;2022-07-24T07:22:01;5.70;;;3.67;;
5805;SDS011;2929;50.810;8.342;2022-07-24T07:24:28;3.70;;;3.10;;
5805;SDS011;2929;50.810;8.342;2022-07-24T07:26:55;4.53;;;3.20;;
5805;SDS011;2929;50.810;8.342;2022-07-24T07:29:22;3.83;;;3.43;;
5805;SDS011;2929;50.810;8.342;2022-07-24T07:31:49;5.13;;;3.20;;
5805;SDS011;2929;50.810;8.342;2022-07-24T07:34:16;3.97;;;3.60;;
5805;SDS011;2929;50.810;8.342;2022-07-24T07:36:43;5.10;;;3.67;;
5805;SDS011;2929;50.810;8.342;2022-07-24T07:39:11;3.50;;;3.20;;
5805;SDS011;2929;50.810;8.342;2022-07-24T07:41:38;4.40;;;3.73;;
5805;SDS011;2929;50.810;8.342;2022-07-24T07:44:05;4.67;;;3.97;;
5805;SDS011;2929;50.810;8.342;2022-07-24T07:46:32;6.70;;;3.97;;
5805;SDS011;2929;50.810;8.342;2022-07-24T07:48:59;5.50;;;3.70;;
5805;SDS011;2929;50.810;8.342;2022-07-24T07:51:26;4.30;;;3.90;;
5805;SDS011;2929;50.810;8.342;2022-07-24T07:53:53;3.63;;;3.10;;
5805;SDS011;2929;50.810;8.342;2022-07-24T07:56:22;5.13;;;3.30;;
5805;SDS011;2929;50.810;8.342;2022-07-24T07:58:49;9.33;;;3.87;;
5805;SDS011;2929;50.810;8.342;2022-07-24T08:01:16;3.93;;;3.53;;
5805;SDS011;2929;50.810;8.342;2022-07-24T08:03:43;5.70;;;3.27;;
5805;SDS011;2929;50.810;8.342;2022-07-24T08:06:10;4.10;;;3.13;;
5805;SDS011;2929;50.810;8.342;2022-07-24T08:08:38;4.27;;;3.10;;
5805;SDS011;2929;50.810;8.342;2022-07-24T08:11:05;6.17;;;3.80;;
5805;SDS011;2929;50.810;8.342;2022-07-24T08:13:33;3.50;;;3.20;;
5805;SDS011;2929;50.810;8.342;2022-07-24T08:16:00;9.17;;;3.07;;
5805;SDS011;2929;50.810;8.342;2022-07-24T08:18:27;5.43;;;4.23;;
5805;SDS011;2929;50.810;8.342;2022-07-24T08:20:54;5.97;;;4.47;;
5805;SDS011;2929;50.810;8.342;2022-07-24T08:23:21;4.73;;;3.23;;
5805;SDS011;2929;50.810;8.342;2022-07-24T08:25:48;3.83;;;3.43;;
5805;SDS011;2929;50.810;8.342;2022-07-24T08:28:15;4.10;;;3.60;;
5805;SDS011;2929;50.810;8.342;2022-07-24T08:30:44;10.93;;;3.50;;
5805;SDS011;2929;50.810;8.342;2022-07-24T08:33:11;3.93;;;3.30;;
5805;SDS011;2929;50.810;8.342;2022-07-24T08:35:38;6.00;;;3.40;;
5805;SDS011;2929;50.810;8.342;2022-07-24T08:38:05;4.50;;;3.30;;
5805;SDS011;2929;50.810;8.342;2022-07-24T08:40:33;3.93;;;3.43;;
5805;SDS011;2929;50.810;8.342;2022-07-24T08:43:02;7.40;;;3.40;;
5805;SDS011;2929;50.810;8.342;2022-07-24T08:45:29;4.30;;;3.90;;
5805;SDS011;2929;50.810;8.342;2022-07-24T08:48:02;3.73;;;3.43;;
5805;SDS011;2929;50.810;8.342;2022-07-24T08:50:30;3.70;;;3.40;;
5805;SDS011;2929;50.810;8.342;2022-07-24T08:52:58;5.40;;;3.57;;
5805;SDS011;2929;50.810;8.342;2022-07-24T08:55:26;3.23;;;2.97;;
5805;SDS011;2929;50.810;8.342;2022-07-24T08:57:55;4.23;;;3.47;;
5805;SDS011;2929;50.810;8.342;2022-07-24T09:00:22;4.13;;;3.73;;
5805;SDS011;2929;50.810;8.342;2022-07-24T09:02:50;4.90;;;3.57;;
5805;SDS011;2929;50.810;8.342;2022-07-24T09:05:18;4.13;;;3.80;;
5805;SDS011;2929;50.810;8.342;2022-07-24T09:07:46;4.73;;;3.60;;
5805;SDS011;2929;50.810;8.342;2022-07-24T09:10:14;6.30;;;3.83;;
5805;SDS011;2929;50.810;8.342;2022-07-24T09:12:42;6.07;;;3.87;;
5805;SDS011;2929;50.810;8.342;2022-07-24T09:15:11;4.30;;;3.60;;
5805;SDS011;2929;50.810;8.342;2022-07-24T09:17:46;7.63;;;5.07;;
5805;SDS011;2929;50.810;8.342;2022-07-24T09:20:14;9.97;;;4.70;;
5805;SDS011;2929;50.810;8.342;2022-07-24T09:22:43;4.73;;;4.33;;
5805;SDS011;2929;50.810;8.342;2022-07-24T09:25:14;4.83;;;3.90;;
5805;SDS011;2929;50.810;8.342;2022-07-24T09:27:45;5.70;;;4.33;;
5805;SDS011;2929;50.810;8.342;2022-07-24T09:30:22;8.40;;;4.20;;
5805;SDS011;2929;50.810;8.342;2022-07-24T09:32:52;4.17;;;3.77;;
5805;SDS011;2929;50.810;8.342;2022-07-24T09:35:21;5.70;;;4.20;;
5805;SDS011;2929;50.810;8.342;2022-07-24T09:37:54;5.20;;;4.70;;
5805;SDS011;2929;50.810;8.342;2022-07-24T09:40:24;8.70;;;4.17;;
5805;SDS011;2929;50.810;8.342;2022-07-24T09:42:56;5.37;;;3.80;;
5805;SDS011;2929;50.810;8.342;2022-07-24T09:45:50;5.40;;;4.23;;
5805;SDS011;2929;50.810;8.342;2022-07-24T09:48:19;7.73;;;4.63;;
5805;SDS011;2929;50.810;8.342;2022-07-24T09:50:51;7.10;;;4.30;;
5805;SDS011;2929;50.810;8.342;2022-07-24T09:53:21;4.57;;;4.23;;
5805;SDS011;2929;50.810;8.342;2022-07-24T09:55:59;9.83;;;5.10;;
5805;SDS011;2929;50.810;8.342;2022-07-24T09:58:28;9.90;;;4.70;;
5805;SDS011;2929;50.810;8.342;2022-07-24T10:00:57;8.17;;;4.20;;
5805;SDS011;2929;50.810;8.342;2022-07-24T10:03:26;4.77;;;4.37;;
5805;SDS011;2929;50.810;8.342;2022-07-24T10:05:55;6.40;;;4.57;;
5805;SDS011;2929;50.810;8.342;2022-07-24T10:08:25;5.50;;;4.40;;
5805;SDS011;2929;50.810;8.342;2022-07-24T10:10:53;5.90;;;4.63;;
5805;SDS011;2929;50.810;8.342;2022-07-24T10:13:21;6.70;;;4.53;;
5805;SDS011;2929;50.810;8.342;2022-07-24T10:15:54;6.80;;;4.10;;
5805;SDS011;2929;50.810;8.342;2022-07-24T10:18:39;4.07;;;3.70;;
5805;SDS011;2929;50.810;8.342;2022-07-24T10:21:15;4.70;;;3.87;;
5805;SDS011;2929;50.810;8.342;2022-07-24T10:27:02;8.40;;;4.43;;
5805;SDS011;2929;50.810;8.342;2022-07-24T10:29:32;5.23;;;4.10;;
5805;SDS011;2929;50.810;8.342;2022-07-24T10:32:01;4.73;;;4.13;;
5805;SDS011;2929;50.810;8.342;2022-07-24T10:34:31;4.10;;;3.53;;
5805;SDS011;2929;50.810;8.342;2022-07-24T10:37:05;4.67;;;4.13;;
5805;SDS011;2929;50.810;8.342;2022-07-24T10:39:41;3.77;;;3.47;;
5805;SDS011;2929;50.810;8.342;2022-07-24T10:42:13;4.53;;;4.13;;
5805;SDS011;2929;50.810;8.342;2022-07-24T10:44:41;5.40;;;4.40;;
5805;SDS011;2929;50.810;8.342;2022-07-24T10:47:10;4.87;;;4.00;;
5805;SDS011;2929;50.810;8.342;2022-07-24T10:49:40;6.93;;;4.37;;
5805;SDS011;2929;50.810;8.342;2022-07-24T10:52:09;4.73;;;3.77;;
5805;SDS011;2929;50.810;8.342;2022-07-24T10:54:38;4.57;;;4.23;;
5805;SDS011;2929;50.810;8.342;2022-07-24T10:57:06;6.20;;;3.90;;
5805;SDS011;2929;50.810;8.342;2022-07-24T10:59:34;4.47;;;4.07;;
5805;SDS011;2929;50.810;8.342;2022-07-24T11:02:24;4.57;;;4.27;;
5805;SDS011;2929;50.810;8.342;2022-07-24T11:11:04;4.67;;;4.13;;
5805;SDS011;2929;50.810;8.342;2022-07-24T11:13:39;4.13;;;3.73;;
5805;SDS011;2929;50.810;8.342;2022-07-24T11:16:23;3.83;;;3.40;;
5805;SDS011;2929;50.810;8.342;2022-07-24T11:22:06;4.17;;;3.77;;
5805;SDS011;2929;50.810;8.342;2022-07-24T11:27:45;10.43;;;4.40;;
5805;SDS011;2929;50.810;8.342;2022-07-24T11:30:14;4.70;;;4.33;;
5805;SDS011;2929;50.810;8.342;2022-07-24T11:32:42;4.77;;;4.37;;
5805;SDS011;2929;50.810;8.342;2022-07-24T11:35:10;4.77;;;4.27;;
5805;SDS011;2929;50.810;8.342;2022-07-24T11:37:38;4.40;;;3.97;;
5805;SDS011;2929;50.810;8.342;2022-07-24T11:40:06;4.50;;;3.90;;
5805;SDS011;2929;50.810;8.342;2022-07-24T11:42:34;4.23;;;3.93;;
5805;SDS011;2929;50.810;8.342;2022-07-24T11:45:04;4.37;;;3.97;;
5805;SDS011;2929;50.810;8.342;2022-07-24T11:47:32;3.97;;;3.70;;
5805;SDS011;2929;50.810;8.342;2022-07-24T11:49:59;5.33;;;3.57;;
5805;SDS011;2929;50.810;8.342;2022-07-24T11:52:29;4.33;;;4.00;;
5805;SDS011;2929;50.810;8.342;2022-07-24T11:54:58;7.07;;;3.90;;
5805;SDS011;2929;50.810;8.342;2022-07-24T11:57:28;4.03;;;3.70;;
5805;SDS011;2929;50.810;8.342;2022-07-24T11:59:56;4.80;;;4.00;;
5805;SDS011;2929;50.810;8.342;2022-07-24T12:02:25;5.40;;;3.47;;
5805;SDS011;2929;50.810;8.342;2022-07-24T12:04:53;6.57;;;4.30;;
5805;SDS011;2929;50.810;8.342;2022-07-24T12:07:21;4.97;;;3.93;;
5805;SDS011;2929;50.810;8.342;2022-07-24T12:09:50;4.43;;;4.10;;
5805;SDS011;2929;50.810;8.342;2022-07-24T12:12:20;8.23;;;3.90;;
5805;SDS011;2929;50.810;8.342;2022-07-24T12:14:50;4.07;;;3.73;;
5805;SDS011;2929;50.810;8.342;2022-07-24T12:17:18;3.77;;;3.47;;
5805;SDS011;2929;50.810;8.342;2022-07-24T12:19:53;3.60;;;3.30;;
5805;SDS011;2929;50.810;8.342;2022-07-24T12:22:21;3.83;;;3.43;;
5805;SDS011;2929;50.810;8.342;2022-07-24T12:24:50;3.47;;;3.17;;
5805;SDS011;2929;50.810;8.342;2022-07-24T12:30:16;3.50;;;3.20;;
5805;SDS011;2929;50.810;8.342;2022-07-24T12:32:54;3.50;;;3.20;;
5805;SDS011;2929;50.810;8.342;2022-07-24T12:35:27;3.97;;;3.57;;
5805;SDS011;2929;50.810;8.342;2022-07-24T12:37:55;13.20;;;3.87;;
5805;SDS011;2929;50.810;8.342;2022-07-24T12:40:30;3.60;;;3.30;;
5805;SDS011;2929;50.810;8.342;2022-07-24T12:43:00;3.53;;;3.23;;
5805;SDS011;2929;50.810;8.342;2022-07-24T12:45:29;5.17;;;3.33;;
5805;SDS011;2929;50.810;8.342;2022-07-24T12:48:06;6.10;;;3.60;;
5805;SDS011;2929;50.810;8.342;2022-07-24T12:53:29;3.33;;;3.03;;
5805;SDS011;2929;50.810;8.342;2022-07-24T12:56:00;3.03;;;2.80;;
5805;SDS011;2929;50.810;8.342;2022-07-24T12:58:28;3.10;;;2.90;;
5805;SDS011;2929;50.810;8.342;2022-07-24T13:00:56;3.50;;;2.87;;
5805;SDS011;2929;50.810;8.342;2022-07-24T13:03:24;2.80;;;2.70;;
5805;SDS011;2929;50.810;8.342;2022-07-24T13:05:54;4.67;;;2.50;;
5805;SDS011;2929;50.810;8.342;2022-07-24T13:08:23;3.17;;;2.93;;
5805;SDS011;2929;50.810;8.342;2022-07-24T13:10:50;5.33;;;3.20;;
5805;SDS011;2929;50.810;8.342;2022-07-24T13:13:17;2.80;;;2.60;;
5805;SDS011;2929;50.810;8.342;2022-07-24T13:15:44;3.30;;;3.10;;
5805;SDS011;2929;50.810;8.342;2022-07-24T13:18:12;3.20;;;3.00;;
5805;SDS011;2929;50.810;8.342;2022-07-24T13:20:39;2.70;;;2.60;;
5805;SDS011;2929;50.810;8.342;2022-07-24T13:23:06;3.03;;;2.80;;
5805;SDS011;2929;50.810;8.342;2022-07-24T13:25:34;4.80;;;2.93;;
5805;SDS011;2929;50.810;8.342;2022-07-24T13:28:01;2.47;;;2.33;;
5805;SDS011;2929;50.810;8.342;2022-07-24T13:30:28;3.57;;;2.57;;
5805;SDS011;2929;50.810;8.342;2022-07-24T13:32:55;2.70;;;2.50;;
5805;SDS011;2929;50.810;8.342;2022-07-24T13:35:22;2.67;;;2.47;;
5805;SDS011;2929;50.810;8.342;2022-07-24T13:37:50;2.67;;;2.53;;
5805;SDS011;2929;50.810;8.342;2022-07-24T13:40:17;3.10;;;2.80;;
5805;SDS011;2929;50.810;8.342;2022-07-24T13:42:45;3.00;;;2.80;;
5805;SDS011;2929;50.810;8.342;2022-07-24T13:45:13;2.60;;;2.40;;
5805;SDS011;2929;50.810;8.342;2022-07-24T13:47:40;3.00;;;2.80;;
5805;SDS011;2929;50.810;8.342;2022-07-24T13:50:07;2.70;;;2.50;;
5805;SDS011;2929;50.810;8.342;2022-07-24T13:52:35;3.40;;;3.07;;
5805;SDS011;2929;50.810;8.342;2022-07-24T13:55:02;2.57;;;2.20;;
5805;SDS011;2929;50.810;8.342;2022-07-24T13:57:29;2.80;;;2.57;;
5805;SDS011;2929;50.810;8.342;2022-07-24T13:59:58;3.37;;;3.10;;
5805;SDS011;2929;50.810;8.342;2022-07-24T14:02:25;3.33;;;3.03;;
5805;SDS011;2929;50.810;8.342;2022-07-24T14:04:52;4.30;;;2.53;;
5805;SDS011;2929;50.810;8.342;2022-07-24T14:07:19;3.27;;;3.07;;
5805;SDS011;2929;50.810;8.342;2022-07-24T14:09:46;3.00;;;2.70;;
5805;SDS011;2929;50.810;8.342;2022-07-24T14:12:13;4.10;;;2.90;;
5805;SDS011;2929;50.810;8.342;2022-07-24T14:14:40;3.07;;;2.73;;
5805;SDS011;2929;50.810;8.342;2022-07-24T14:17:09;2.63;;;2.50;;
5805;SDS011;2929;50.810;8.342;2022-07-24T14:19:36;3.37;;;3.07;;
5805;SDS011;2929;50.810;8.342;2022-07-24T14:22:05;2.70;;;2.50;;
5805;SDS011;2929;50.810;8.342;2022-07-24T14:24:33;3.00;;;2.63;;
5805;SDS011;2929;50.810;8.342;2022-07-24T14:27:00;2.90;;;2.70;;
5805;SDS011;2929;50.810;8.342;2022-07-24T14:29:27;2.77;;;2.60;;
5805;SDS011;2929;50.810;8.342;2022-07-24T14:31:54;2.27;;;2.17;;
5805;SDS011;2929;50.810;8.342;2022-07-24T14:34:22;2.37;;;2.27;;
5805;SDS011;2929;50.810;8.342;2022-07-24T14:36:49;6.40;;;2.47;;
5805;SDS011;2929;50.810;8.342;2022-07-24T14:39:17;3.63;;;2.30;;
5805;SDS011;2929;50.810;8.342;2022-07-24T14:41:44;2.70;;;2.60;;
5805;SDS011;2929;50.810;8.342;2022-07-24T14:44:11;2.60;;;2.40;;
5805;SDS011;2929;50.810;8.342;2022-07-24T14:46:39;4.17;;;2.60;;
5805;SDS011;2929;50.810;8.342;2022-07-24T14:49:06;2.90;;;2.70;;
5805;SDS011;2929;50.810;8.342;2022-07-24T14:51:35;8.60;;;2.80;;
5805;SDS011;2929;50.810;8.342;2022-07-24T14:54:03;3.33;;;2.47;;
5805;SDS011;2929;50.810;8.342;2022-07-24T14:56:30;3.57;;;2.60;;
5805;SDS011;2929;50.810;8.342;2022-07-24T14:58:57;2.80;;;2.60;;
5805;SDS011;2929;50.810;8.342;2022-07-24T15:01:25;2.67;;;2.50;;
5805;SDS011;2929;50.810;8.342;2022-07-24T15:03:52;3.80;;;2.77;;
5805;SDS011;2929;50.810;8.342;2022-07-24T15:06:19;3.67;;;2.67;;
5805;SDS011;2929;50.810;8.342;2022-07-24T15:08:48;3.70;;;3.03;;
5805;SDS011;2929;50.810;8.342;2022-07-24T15:11:15;3.13;;;2.80;;
5805;SDS011;2929;50.810;8.342;2022-07-24T15:13:42;2.93;;;2.70;;
5805;SDS011;2929;50.810;8.342;2022-07-24T15:16:09;2.60;;;2.40;;
5805;SDS011;2929;50.810;8.342;2022-07-24T15:18:36;2.20;;;2.10;;
5805;SDS011;2929;50.810;8.342;2022-07-24T15:21:03;6.00;;;3.30;;
5805;SDS011;2929;50.810;8.342;2022-07-24T15:23:31;4.37;;;2.30;;
5805;SDS011;2929;50.810;8.342;2022-07-24T15:25:59;2.23;;;2.13;;
5805;SDS011;2929;50.810;8.342;2022-07-24T15:28:26;2.40;;;2.30;;
5805;SDS011;2929;50.810;8.342;2022-07-24T15:30:54;3.83;;;2.77;;
5805;SDS011;2929;50.810;8.342;2022-07-24T15:33:21;2.70;;;2.50;;
5805;SDS011;2929;50.810;8.342;2022-07-24T15:35:48;2.60;;;2.50;;
5805;SDS011;2929;50.810;8.342;2022-07-24T15:38:15;2.50;;;2.40;;
5805;SDS011;2929;50.810;8.342;2022-07-24T15:40:44;2.93;;;2.50;;
5805;SDS011;2929;50.810;8.342;2022-07-24T15:43:14;3.57;;;2.63;;
5805;SDS011;2929;50.810;8.342;2022-07-24T15:45:42;3.03;;;2.83;;